createdAt,value
2024-03-22T00:01:37.509Z,43.00
2024-03-22T00:04:36.975Z,44.33
2024-03-22T00:07:36.948Z,44.47
2024-03-22T00:10:36.997Z,43.60
2024-03-22T00:13:36.956Z,43.67
2024-03-22T00:16:36.998Z,44.60
2024-03-22T00:19:36.924Z,45.07
2024-03-22T00:22:37.025Z,44.13
2024-03-22T00:25:36.967Z,44.93
2024-03-22T00:28:36.990Z,44.67
2024-03-22T00:31:37.349Z,44.20
2024-03-22T00:34:36.966Z,45.73
2024-03-22T00:37:36.960Z,46.20
2024-03-22T00:40:37.240Z,47.27
2024-03-22T00:43:37.078Z,47.87
2024-03-22T00:46:36.981Z,45.80
2024-03-22T00:49:36.871Z,47.60
2024-03-22T00:52:36.978Z,48.27
2024-03-22T00:55:36.940Z,47.60
2024-03-22T00:58:36.940Z,49.20
2024-03-22T01:01:37.150Z,48.53
2024-03-22T01:04:37.007Z,48.47
2024-03-22T01:07:36.942Z,46.80
2024-03-22T01:10:37.220Z,50.33
2024-03-22T01:13:37.063Z,49.27
2024-03-22T01:16:37.059Z,49.87
2024-03-22T01:19:37.025Z,49.53
2024-03-22T01:22:36.946Z,47.53
2024-03-22T01:25:37.013Z,47.07
2024-03-22T01:28:36.873Z,48.00
2024-03-22T01:31:37.087Z,47.80
2024-03-22T01:34:36.989Z,47.13
2024-03-22T01:37:36.885Z,49.47
2024-03-22T01:40:37.036Z,47.20
2024-03-22T01:43:37.001Z,46.60
2024-03-22T01:46:37.046Z,48.53
2024-03-22T01:49:36.896Z,47.53
2024-03-22T01:52:36.974Z,47.93
2024-03-22T01:55:36.984Z,47.33
2024-03-22T01:58:36.932Z,47.53
2024-03-22T02:01:37.090Z,46.47
2024-03-22T02:04:36.908Z,46.67
2024-03-22T02:07:37.004Z,47.00
2024-03-22T02:10:36.972Z,45.53
2024-03-22T02:13:36.839Z,47.00
2024-03-22T02:16:37.041Z,46.53
2024-03-22T02:19:36.866Z,46.87
2024-03-22T02:22:36.956Z,47.67
2024-03-22T02:25:36.906Z,47.67
2024-03-22T02:28:37.097Z,46.00
2024-03-22T02:31:37.201Z,45.53
2024-03-22T02:34:42.677Z,44.87
2024-03-22T02:37:36.883Z,45.00
2024-03-22T02:40:37.068Z,44.07
2024-03-22T02:43:36.925Z,44.67
2024-03-22T02:46:36.916Z,44.27
2024-03-22T02:49:37.066Z,43.20
2024-03-22T02:52:37.149Z,44.07
2024-03-22T02:55:36.902Z,42.40
2024-03-22T02:58:36.947Z,43.47
2024-03-22T03:01:39.043Z,44.00
2024-03-22T03:04:36.916Z,43.20
2024-03-22T03:07:36.916Z,43.40
2024-03-22T03:10:37.113Z,43.40
2024-03-22T03:13:36.960Z,42.53
2024-03-22T03:16:36.931Z,42.27
2024-03-22T03:19:37.004Z,41.33
2024-03-22T03:22:36.899Z,40.47
2024-03-22T03:25:37.001Z,40.73
2024-03-22T03:28:36.914Z,41.07
2024-03-22T03:31:37.032Z,41.33
2024-03-22T03:34:37.064Z,41.40
2024-03-22T03:37:36.899Z,42.07
2024-03-22T03:40:37.144Z,41.60
2024-03-22T03:43:36.849Z,41.07
2024-03-22T03:46:37.021Z,39.73
2024-03-22T03:49:37.146Z,38.13
2024-03-22T03:52:37.117Z,38.20
2024-03-22T03:55:37.148Z,37.53
2024-03-22T03:58:36.936Z,38.67
2024-03-22T04:01:37.246Z,39.13
2024-03-22T04:04:36.983Z,39.07
2024-03-22T04:07:37.094Z,39.80
2024-03-22T04:10:37.001Z,39.87
2024-03-22T04:13:36.876Z,39.33
2024-03-22T04:16:37.041Z,39.93
2024-03-22T04:19:36.934Z,41.07
2024-03-22T04:22:36.961Z,40.60
2024-03-22T04:25:37.184Z,40.80
2024-03-22T04:28:37.018Z,40.60
2024-03-22T04:31:37.168Z,41.47
2024-03-22T04:34:36.938Z,41.13
2024-03-22T04:37:36.902Z,41.93
2024-03-22T04:40:36.912Z,41.73
2024-03-22T04:43:36.947Z,42.07
2024-03-22T04:46:36.955Z,41.33
2024-03-22T04:49:36.904Z,41.40
2024-03-22T04:52:37.114Z,41.20
2024-03-22T04:55:36.927Z,41.20
2024-03-22T04:58:36.921Z,41.20
2024-03-22T05:01:37.208Z,40.60
2024-03-22T05:04:38.406Z,40.80
2024-03-22T05:07:36.940Z,39.40
2024-03-22T05:10:36.974Z,40.00
2024-03-22T05:13:36.874Z,39.73
2024-03-22T05:16:37.001Z,39.53
2024-03-22T05:19:36.932Z,39.20
2024-03-22T05:22:36.892Z,39.00
2024-03-22T05:25:37.040Z,38.00
2024-03-22T05:28:37.005Z,37.00
2024-03-22T05:31:37.163Z,37.27
2024-03-22T05:34:36.965Z,36.93
2024-03-22T05:37:36.993Z,36.13
2024-03-22T05:40:36.891Z,36.87
2024-03-22T05:43:36.944Z,36.33
2024-03-22T05:46:37.089Z,34.80
2024-03-22T05:49:36.912Z,36.07
2024-03-22T05:52:36.944Z,36.00
2024-03-22T05:55:36.906Z,35.07
2024-03-22T05:58:36.981Z,34.80
2024-03-22T06:01:37.165Z,34.60
2024-03-22T06:04:36.900Z,34.20
2024-03-22T06:07:36.913Z,34.67
2024-03-22T06:10:37.010Z,34.47
2024-03-22T06:13:36.946Z,33.60
2024-03-22T06:16:39.566Z,32.87
2024-03-22T06:19:36.929Z,32.27
2024-03-22T06:22:38.778Z,32.67
2024-03-22T06:25:36.853Z,32.27
2024-03-22T06:28:36.913Z,31.20
2024-03-22T06:31:37.016Z,31.60
2024-03-22T06:34:36.903Z,30.60
2024-03-22T06:37:36.918Z,30.33
2024-03-22T06:40:36.987Z,30.93
2024-03-22T06:43:37.110Z,30.93
2024-03-22T06:46:37.043Z,30.67
2024-03-22T06:49:39.597Z,30.93
2024-03-22T06:52:36.879Z,30.93
2024-03-22T06:55:36.953Z,30.40
2024-03-22T06:58:36.873Z,30.00
2024-03-22T07:01:37.119Z,30.67
2024-03-22T07:04:37.032Z,29.33
2024-03-22T07:07:37.919Z,29.73
2024-03-22T07:10:37.184Z,30.00
2024-03-22T07:13:36.888Z,30.67
2024-03-22T07:16:38.393Z,30.80
2024-03-22T07:19:36.910Z,30.13
2024-03-22T07:22:36.944Z,30.00
2024-03-22T07:25:37.223Z,29.20
2024-03-22T07:28:36.941Z,29.80
2024-03-22T07:31:38.005Z,30.00
2024-03-22T07:34:36.932Z,30.47
2024-03-22T07:37:46.553Z,29.60
2024-03-22T07:40:37.122Z,29.60
2024-03-22T07:43:36.981Z,30.33
2024-03-22T07:46:37.050Z,29.13
2024-03-22T07:49:37.230Z,29.87
2024-03-22T07:52:37.082Z,30.67
2024-03-22T07:55:36.942Z,29.60
2024-03-22T07:58:38.559Z,30.00
2024-03-22T08:01:37.330Z,30.27
2024-03-22T08:04:40.063Z,31.27
2024-03-22T08:07:36.964Z,31.27
2024-03-22T08:10:37.260Z,30.80
2024-03-22T08:13:37.282Z,32.33
2024-03-22T08:16:36.945Z,32.33
2024-03-22T08:19:37.103Z,32.67
2024-03-22T08:22:37.901Z,33.20
2024-03-22T08:25:37.447Z,34.00
2024-03-22T08:31:39.983Z,34.47
2024-03-22T08:34:37.408Z,35.33
2024-03-22T08:37:37.129Z,34.93
2024-03-22T08:40:37.209Z,36.00
2024-03-22T08:43:36.939Z,37.20
2024-03-22T08:46:37.369Z,37.53
2024-03-22T08:49:37.138Z,37.93
2024-03-22T08:52:39.079Z,38.13
2024-03-22T08:55:38.434Z,37.27
2024-03-22T08:58:49.717Z,38.33
2024-03-22T09:01:37.384Z,39.47
2024-03-22T09:04:37.456Z,40.27
2024-03-22T09:07:47.285Z,40.53
2024-03-22T09:10:37.078Z,40.33
2024-03-22T09:13:38.823Z,39.87
2024-03-22T09:16:37.505Z,40.67
2024-03-22T09:19:37.346Z,40.93
2024-03-22T09:22:37.263Z,42.13
2024-03-22T09:25:38.845Z,42.20
2024-03-22T09:28:37.108Z,41.33
2024-03-22T09:31:47.061Z,42.13
2024-03-22T09:34:37.176Z,42.27
2024-03-22T09:37:38.039Z,41.13
2024-03-22T09:40:36.974Z,41.07
2024-03-22T09:43:37.089Z,41.00
2024-03-22T09:46:36.845Z,39.93
2024-03-22T09:49:36.916Z,40.13
2024-03-22T09:52:37.289Z,39.07
2024-03-22T09:55:36.824Z,40.13
2024-03-22T09:58:36.986Z,39.40
2024-03-22T10:01:36.857Z,40.53
2024-03-22T10:04:38.672Z,38.93
2024-03-22T10:07:36.793Z,37.73
2024-03-22T10:10:36.745Z,33.60
2024-03-22T10:13:38.624Z,32.73
2024-03-22T10:16:36.812Z,32.33
2024-03-22T10:19:36.975Z,31.80
2024-03-22T10:22:36.808Z,29.67
2024-03-22T10:25:36.787Z,29.00
2024-03-22T10:28:37.231Z,27.60
2024-03-22T10:31:37.293Z,25.67
2024-03-22T10:34:37.106Z,24.00
2024-03-22T10:37:37.115Z,22.40
2024-03-22T10:40:37.082Z,21.00
2024-03-22T10:43:37.243Z,20.00
2024-03-22T10:46:37.499Z,19.27
2024-03-22T10:49:37.051Z,20.27
2024-03-22T10:52:37.251Z,20.13
2024-03-22T10:55:38.062Z,19.60
2024-03-22T10:58:36.945Z,19.00
2024-03-22T11:01:37.535Z,19.47
2024-03-22T11:04:36.898Z,18.47
2024-03-22T11:07:38.654Z,17.07
2024-03-22T11:10:36.961Z,17.67
2024-03-22T11:13:37.032Z,17.27
2024-03-22T11:16:37.026Z,17.13
2024-03-22T11:19:37.023Z,17.00
2024-03-22T11:22:36.963Z,16.00
2024-03-22T11:25:37.018Z,15.47
2024-03-22T11:28:36.988Z,16.00
2024-03-22T11:31:37.129Z,16.00
2024-03-22T11:34:37.574Z,15.80
2024-03-22T11:37:37.040Z,15.47
2024-03-22T11:40:37.068Z,14.00
2024-03-22T11:43:37.067Z,14.13
2024-03-22T11:46:36.996Z,13.00
2024-03-22T11:49:37.071Z,13.60
2024-03-22T11:52:36.990Z,13.07
2024-03-22T11:55:36.974Z,13.53
2024-03-22T11:58:36.972Z,13.93
2024-03-22T12:04:37.014Z,12.00
2024-03-22T12:07:36.966Z,13.00
2024-03-22T12:10:37.087Z,12.67
2024-03-22T12:13:37.442Z,11.47
2024-03-22T12:16:36.986Z,11.80
2024-03-22T12:19:37.006Z,13.20
2024-03-22T12:22:37.020Z,12.13
2024-03-22T12:25:37.037Z,12.27
2024-03-22T12:28:44.371Z,12.27
2024-03-22T12:31:37.249Z,12.20
2024-03-22T12:34:37.078Z,12.00
2024-03-22T12:37:37.028Z,10.60
2024-03-22T12:40:37.087Z,11.07
2024-03-22T12:43:43.687Z,11.27
2024-03-22T12:46:37.194Z,10.73
2024-03-22T12:49:38.131Z,10.20
2024-03-22T12:52:37.021Z,10.47
2024-03-22T12:55:36.973Z,10.00
2024-03-22T12:58:36.983Z,9.93
2024-03-22T13:01:37.250Z,9.73
2024-03-22T13:04:37.025Z,9.80
2024-03-22T13:07:37.078Z,9.67
2024-03-22T13:10:37.635Z,9.27
2024-03-22T13:13:37.143Z,8.73
2024-03-22T13:19:37.114Z,9.40
2024-03-22T13:22:37.022Z,9.40
2024-03-22T13:25:37.012Z,8.87
2024-03-22T13:28:37.121Z,9.13
2024-03-22T13:31:42.873Z,9.07
2024-03-22T13:34:37.413Z,8.80
2024-03-22T13:37:37.012Z,9.13
2024-03-22T13:40:37.045Z,9.47
2024-03-22T13:43:36.985Z,10.00
2024-03-22T13:46:38.652Z,10.00
2024-03-22T13:49:36.936Z,11.00
2024-03-22T13:52:38.231Z,12.40
2024-03-22T13:55:37.027Z,11.47
2024-03-22T13:58:48.602Z,9.87
2024-03-22T14:01:37.455Z,9.67
2024-03-22T14:04:37.206Z,9.67
2024-03-22T14:07:37.320Z,9.07
2024-03-22T14:10:37.248Z,9.73
2024-03-22T14:13:37.131Z,10.80
2024-03-22T14:16:37.332Z,10.00
2024-03-22T14:19:37.170Z,10.67
2024-03-22T14:22:37.188Z,11.00
2024-03-22T14:25:37.186Z,10.20
2024-03-22T14:28:37.137Z,11.40
2024-03-22T14:31:37.824Z,11.00
2024-03-22T14:34:37.146Z,11.00
2024-03-22T14:37:36.995Z,11.93
2024-03-22T14:40:37.348Z,11.00
2024-03-22T14:43:37.003Z,12.60
2024-03-22T14:46:37.087Z,11.87
2024-03-22T14:49:37.104Z,13.07
2024-03-22T14:52:37.192Z,12.40
2024-03-22T14:55:37.184Z,12.33
2024-03-22T14:58:37.498Z,12.73
2024-03-22T15:01:37.206Z,12.33
2024-03-22T15:04:39.436Z,12.87
2024-03-22T15:07:36.918Z,12.53
2024-03-22T15:10:37.926Z,11.93
2024-03-22T15:13:36.958Z,12.87
2024-03-22T15:16:37.905Z,12.47
2024-03-22T15:19:37.114Z,12.67
2024-03-22T15:22:37.125Z,12.27
2024-03-22T15:25:36.976Z,13.20
2024-03-22T15:28:37.110Z,14.60
2024-03-22T15:31:39.514Z,13.60
2024-03-22T15:34:37.234Z,13.87
2024-03-22T15:37:37.293Z,14.47
2024-03-22T15:40:37.290Z,13.80
2024-03-22T15:43:37.273Z,13.60
2024-03-22T15:46:37.419Z,14.13
2024-03-22T15:49:37.259Z,14.73
2024-03-22T15:52:37.335Z,14.73
2024-03-22T15:55:37.109Z,15.33
2024-03-22T15:58:37.083Z,15.00
2024-03-22T16:01:38.008Z,15.80
2024-03-22T16:04:37.139Z,16.93
2024-03-22T16:10:41.303Z,16.27
2024-03-22T16:13:37.559Z,16.00
2024-03-22T16:16:37.425Z,17.13
2024-03-22T16:19:37.071Z,16.20
2024-03-22T16:22:37.239Z,15.13
2024-03-22T16:25:36.989Z,15.47
2024-03-22T16:28:37.135Z,15.00
2024-03-22T16:31:37.541Z,13.60
2024-03-22T16:34:37.037Z,14.00
2024-03-22T16:37:36.936Z,14.40
2024-03-22T16:40:37.228Z,12.60
2024-03-22T16:43:37.011Z,13.60
2024-03-22T16:46:36.972Z,14.47
2024-03-22T16:49:36.963Z,14.47
2024-03-22T16:52:37.634Z,14.00
2024-03-22T16:55:36.979Z,14.80
2024-03-22T16:58:38.161Z,14.73
2024-03-22T17:01:37.223Z,15.47
2024-03-22T17:04:36.920Z,14.87
2024-03-22T17:07:42.310Z,15.67
2024-03-22T17:10:37.087Z,15.60
2024-03-22T17:13:41.699Z,16.67
2024-03-22T17:16:36.928Z,15.87
2024-03-22T17:19:37.051Z,16.00
2024-03-22T17:22:36.890Z,15.73
2024-03-22T17:25:37.074Z,16.00
2024-03-22T17:28:36.931Z,16.80
2024-03-22T17:34:37.718Z,15.93
2024-03-22T17:37:37.309Z,16.67
2024-03-22T17:40:37.292Z,17.27
2024-03-22T17:43:37.346Z,16.73
2024-03-22T17:46:38.939Z,16.07
2024-03-22T17:49:37.721Z,16.67
2024-03-22T17:52:37.521Z,18.73
2024-03-22T17:55:37.392Z,18.20
2024-03-22T17:58:37.054Z,16.53
2024-03-22T18:01:37.565Z,16.53
2024-03-22T18:04:37.298Z,17.00
2024-03-22T18:07:44.524Z,17.07
2024-03-22T18:10:38.347Z,16.07
2024-03-22T18:13:37.064Z,16.40
2024-03-22T18:16:37.377Z,16.33
2024-03-22T18:19:36.967Z,16.07
2024-03-22T18:22:36.999Z,17.20
2024-03-22T18:25:37.065Z,18.33
2024-03-22T18:28:36.902Z,19.00
2024-03-22T18:31:37.119Z,18.93
2024-03-22T18:34:36.922Z,19.33
2024-03-22T18:37:37.016Z,18.80
2024-03-22T18:40:37.570Z,19.60
2024-03-22T18:43:36.921Z,17.33
2024-03-22T18:46:37.055Z,16.60
2024-03-22T18:49:36.850Z,15.87
2024-03-22T18:52:36.832Z,16.33
2024-03-22T18:55:36.881Z,17.67
2024-03-22T18:58:36.925Z,22.20
2024-03-22T19:01:37.023Z,19.47
2024-03-22T19:04:40.824Z,19.60
2024-03-22T19:07:36.891Z,18.80
2024-03-22T19:10:37.013Z,18.20
2024-03-22T19:13:36.873Z,17.53
2024-03-22T19:16:36.848Z,17.40
2024-03-22T19:19:36.971Z,18.87
2024-03-22T19:22:36.863Z,18.73
2024-03-22T19:25:36.919Z,17.00
2024-03-22T19:28:36.850Z,18.47
2024-03-22T19:31:37.313Z,17.53
2024-03-22T19:34:36.892Z,19.07
2024-03-22T19:37:36.949Z,17.07
2024-03-22T19:40:37.040Z,21.60
2024-03-22T19:43:36.925Z,24.27
2024-03-22T19:46:38.945Z,23.07
2024-03-22T19:49:36.889Z,21.40
2024-03-22T19:52:37.025Z,20.93
2024-03-22T19:55:36.919Z,19.13
2024-03-22T19:58:36.912Z,18.33
2024-03-22T20:01:37.324Z,18.53
2024-03-22T20:04:36.982Z,18.47
2024-03-22T20:07:36.928Z,17.80
2024-03-22T20:10:37.049Z,17.80
2024-03-22T20:13:37.061Z,17.60
2024-03-22T20:16:37.057Z,17.67
2024-03-22T20:19:36.931Z,19.27
2024-03-22T20:22:36.908Z,19.93
2024-03-22T20:25:36.892Z,19.27
2024-03-22T20:28:37.127Z,17.67
2024-03-22T20:31:37.197Z,17.47
2024-03-22T20:34:37.031Z,18.27
2024-03-22T20:37:36.935Z,16.80
2024-03-22T20:40:37.554Z,18.00
2024-03-22T20:43:36.929Z,18.20
2024-03-22T20:46:37.051Z,20.47
2024-03-22T20:49:38.049Z,19.20
2024-03-22T20:52:36.970Z,18.67
2024-03-22T20:55:36.906Z,18.40
2024-03-22T20:58:36.998Z,16.67
2024-03-22T21:01:37.276Z,18.53
2024-03-22T21:04:37.317Z,18.87
2024-03-22T21:07:36.932Z,18.80
2024-03-22T21:10:37.101Z,18.47
2024-03-22T21:13:36.985Z,19.93
2024-03-22T21:16:37.092Z,19.00
2024-03-22T21:19:37.011Z,17.60
2024-03-22T21:22:37.218Z,17.00
2024-03-22T21:25:36.884Z,16.53
2024-03-22T21:28:40.187Z,17.07
2024-03-22T21:31:37.040Z,15.53
2024-03-22T21:34:37.192Z,16.20
2024-03-22T21:37:37.064Z,16.87
2024-03-22T21:40:37.014Z,16.27
2024-03-22T21:43:36.911Z,16.20
2024-03-22T21:46:37.057Z,16.60
2024-03-22T21:49:37.036Z,16.93
2024-03-22T21:52:36.985Z,17.93
2024-03-22T21:55:36.960Z,18.40
2024-03-22T21:58:36.988Z,17.93
2024-03-22T22:01:38.882Z,17.13
2024-03-22T22:04:36.926Z,17.40
2024-03-22T22:07:36.949Z,17.00
2024-03-22T22:10:37.037Z,17.27
2024-03-22T22:13:37.114Z,17.20
2024-03-22T22:16:40.442Z,18.13
2024-03-22T22:19:37.050Z,18.07
2024-03-22T22:22:36.860Z,17.47
2024-03-22T22:25:36.972Z,16.67
2024-03-22T22:28:37.022Z,17.07
2024-03-22T22:31:37.216Z,17.13
2024-03-22T22:34:36.905Z,16.80
2024-03-22T22:37:36.882Z,16.67
2024-03-22T22:40:38.669Z,16.27
2024-03-22T22:43:36.896Z,15.80
2024-03-22T22:46:37.068Z,17.13
2024-03-22T22:49:36.934Z,16.73
2024-03-22T22:52:36.833Z,16.33
2024-03-22T22:55:36.939Z,16.20
2024-03-22T22:58:36.949Z,16.67
2024-03-22T23:01:37.629Z,15.60
2024-03-22T23:04:36.954Z,16.20
2024-03-22T23:07:37.133Z,16.93
2024-03-22T23:10:36.985Z,16.33
2024-03-22T23:13:37.001Z,17.13
2024-03-22T23:16:37.778Z,17.13
2024-03-22T23:19:36.921Z,17.33
2024-03-22T23:22:37.728Z,17.07
2024-03-22T23:25:36.925Z,16.27
2024-03-22T23:28:36.932Z,16.93
2024-03-22T23:31:37.361Z,15.53
2024-03-22T23:34:36.851Z,15.47
2024-03-22T23:37:36.956Z,16.47
2024-03-22T23:40:37.000Z,16.67
2024-03-22T23:43:36.879Z,16.60
2024-03-22T23:46:37.063Z,16.53
2024-03-22T23:49:37.037Z,16.80
2024-03-22T23:52:37.001Z,16.80
2024-03-22T23:55:37.033Z,16.47
2024-03-22T23:58:37.010Z,16.87
